sensor_id;sensor_type;location;lat;lon;timestamp;temperature;humidity
666;DHT22;315;48.738;9.126;2023-09-08T00:00:37;18.10;99.90
666;DHT22;315;48.738;9.126;2023-09-08T00:03:02;18.10;99.90
666;DHT22;315;48.738;9.126;2023-09-08T00:05:28;18.00;99.90
666;DHT22;315;48.738;9.126;2023-09-08T00:07:54;18.00;99.90
666;DHT22;315;48.738;9.126;2023-09-08T00:10:19;18.10;99.90
666;DHT22;315;48.738;9.126;2023-09-08T00:12:45;18.00;99.90
666;DHT22;315;48.738;9.126;2023-09-08T00:15:11;17.90;99.90
666;DHT22;315;48.738;9.126;2023-09-08T00:17:36;17.90;99.90
666;DHT22;315;48.738;9.126;2023-09-08T00:20:03;18.00;99.90
666;DHT22;315;48.738;9.126;2023-09-08T00:22:33;17.90;99.90
666;DHT22;315;48.738;9.126;2023-09-08T00:24:59;17.90;99.90
666;DHT22;315;48.738;9.126;2023-09-08T00:27:24;17.90;99.90
666;DHT22;315;48.738;9.126;2023-09-08T00:29:50;17.90;99.90
666;DHT22;315;48.738;9.126;2023-09-08T00:32:16;17.90;99.90
666;DHT22;315;48.738;9.126;2023-09-08T00:34:41;17.90;99.90
666;DHT22;315;48.738;9.126;2023-09-08T00:37:07;17.80;99.90
666;DHT22;315;48.738;9.126;2023-09-08T00:39:35;17.80;99.90
666;DHT22;315;48.738;9.126;2023-09-08T00:42:01;17.80;99.90
666;DHT22;315;48.738;9.126;2023-09-08T00:44:26;17.80;99.90
666;DHT22;315;48.738;9.126;2023-09-08T00:46:52;17.80;99.90
666;DHT22;315;48.738;9.126;2023-09-08T00:49:18;17.80;99.90
666;DHT22;315;48.738;9.126;2023-09-08T00:51:43;17.80;99.90
666;DHT22;315;48.738;9.126;2023-09-08T00:54:09;17.80;99.90
666;DHT22;315;48.738;9.126;2023-09-08T00:56:37;17.70;99.90
666;DHT22;315;48.738;9.126;2023-09-08T00:59:03;17.70;99.90
666;DHT22;315;48.738;9.126;2023-09-08T01:01:29;17.60;99.90
666;DHT22;315;48.738;9.126;2023-09-08T01:03:55;17.60;99.90
666;DHT22;315;48.738;9.126;2023-09-08T01:06:21;17.50;99.90
666;DHT22;315;48.738;9.126;2023-09-08T01:08:47;17.40;99.90
666;DHT22;315;48.738;9.126;2023-09-08T01:11:13;17.40;99.90
666;DHT22;315;48.738;9.126;2023-09-08T01:13:39;17.30;99.90
666;DHT22;315;48.738;9.126;2023-09-08T01:16:04;17.30;99.90
666;DHT22;315;48.738;9.126;2023-09-08T01:18:30;17.30;99.90
666;DHT22;315;48.738;9.126;2023-09-08T01:26:48;17.30;99.90
666;DHT22;315;48.738;9.126;2023-09-08T01:29:15;17.20;99.90
666;DHT22;315;48.738;9.126;2023-09-08T01:31:42;17.20;99.90
666;DHT22;315;48.738;9.126;2023-09-08T01:34:08;17.10;99.90
666;DHT22;315;48.738;9.126;2023-09-08T01:36:34;17.10;99.90
666;DHT22;315;48.738;9.126;2023-09-08T01:39:00;17.10;99.90
666;DHT22;315;48.738;9.126;2023-09-08T01:41:26;17.10;99.90
666;DHT22;315;48.738;9.126;2023-09-08T01:43:52;17.10;99.90
666;DHT22;315;48.738;9.126;2023-09-08T01:46:17;17.10;99.90
666;DHT22;315;48.738;9.126;2023-09-08T01:48:43;16.90;99.90
666;DHT22;315;48.738;9.126;2023-09-08T01:51:08;16.90;99.90
666;DHT22;315;48.738;9.126;2023-09-08T01:53:34;16.90;99.90
666;DHT22;315;48.738;9.126;2023-09-08T01:55:59;16.90;99.90
666;DHT22;315;48.738;9.126;2023-09-08T01:58:25;16.80;99.90
666;DHT22;315;48.738;9.126;2023-09-08T02:00:50;16.70;99.90
666;DHT22;315;48.738;9.126;2023-09-08T02:03:19;16.70;99.90
666;DHT22;315;48.738;9.126;2023-09-08T02:05:45;16.60;99.90
666;DHT22;315;48.738;9.126;2023-09-08T02:08:11;16.60;99.90
666;DHT22;315;48.738;9.126;2023-09-08T02:10:39;16.60;99.90
666;DHT22;315;48.738;9.126;2023-09-08T02:13:05;16.60;99.90
666;DHT22;315;48.738;9.126;2023-09-08T02:15:31;16.60;99.90
666;DHT22;315;48.738;9.126;2023-09-08T02:17:59;16.50;99.90
666;DHT22;315;48.738;9.126;2023-09-08T02:20:25;16.50;99.90
666;DHT22;315;48.738;9.126;2023-09-08T02:22:54;16.50;99.90
666;DHT22;315;48.738;9.126;2023-09-08T02:25:20;16.50;99.90
666;DHT22;315;48.738;9.126;2023-09-08T02:27:46;16.50;99.90
666;DHT22;315;48.738;9.126;2023-09-08T02:30:11;16.50;99.90
666;DHT22;315;48.738;9.126;2023-09-08T02:32:37;16.50;99.90
666;DHT22;315;48.738;9.126;2023-09-08T02:35:02;16.50;99.90
666;DHT22;315;48.738;9.126;2023-09-08T02:37:28;16.50;99.90
666;DHT22;315;48.738;9.126;2023-09-08T02:39:54;16.50;99.90
666;DHT22;315;48.738;9.126;2023-09-08T02:42:19;16.50;99.90
666;DHT22;315;48.738;9.126;2023-09-08T02:44:45;16.40;99.90
666;DHT22;315;48.738;9.126;2023-09-08T02:47:10;16.40;99.90
666;DHT22;315;48.738;9.126;2023-09-08T02:49:36;16.40;99.90
666;DHT22;315;48.738;9.126;2023-09-08T02:52:01;16.30;99.90
666;DHT22;315;48.738;9.126;2023-09-08T02:54:27;16.40;99.90
666;DHT22;315;48.738;9.126;2023-09-08T02:56:52;16.40;99.90
666;DHT22;315;48.738;9.126;2023-09-08T02:59:18;16.30;99.90
666;DHT22;315;48.738;9.126;2023-09-08T03:01:43;16.30;99.90
666;DHT22;315;48.738;9.126;2023-09-08T03:04:09;16.40;99.90
666;DHT22;315;48.738;9.126;2023-09-08T03:06:34;16.50;99.90
666;DHT22;315;48.738;9.126;2023-09-08T03:09:00;16.50;99.90
666;DHT22;315;48.738;9.126;2023-09-08T03:11:25;16.50;99.90
666;DHT22;315;48.738;9.126;2023-09-08T03:13:51;16.60;99.90
666;DHT22;315;48.738;9.126;2023-09-08T03:16:16;16.60;99.90
666;DHT22;315;48.738;9.126;2023-09-08T03:18:42;16.60;99.90
666;DHT22;315;48.738;9.126;2023-09-08T03:21:07;16.60;99.90
666;DHT22;315;48.738;9.126;2023-09-08T03:23:40;16.60;99.90
666;DHT22;315;48.738;9.126;2023-09-08T03:26:06;16.50;99.90
666;DHT22;315;48.738;9.126;2023-09-08T03:28:33;16.50;99.90
666;DHT22;315;48.738;9.126;2023-09-08T03:30:59;16.40;99.90
666;DHT22;315;48.738;9.126;2023-09-08T03:33:24;16.40;99.90
666;DHT22;315;48.738;9.126;2023-09-08T03:35:50;16.50;99.90
666;DHT22;315;48.738;9.126;2023-09-08T03:38:15;16.50;99.90
666;DHT22;315;48.738;9.126;2023-09-08T03:40:41;16.40;99.90
666;DHT22;315;48.738;9.126;2023-09-08T03:43:06;16.40;99.90
666;DHT22;315;48.738;9.126;2023-09-08T03:45:32;16.30;99.90
666;DHT22;315;48.738;9.126;2023-09-08T03:47:57;16.20;99.90
666;DHT22;315;48.738;9.126;2023-09-08T03:50:23;16.10;99.90
666;DHT22;315;48.738;9.126;2023-09-08T03:52:48;16.10;99.90
666;DHT22;315;48.738;9.126;2023-09-08T03:55:14;16.00;99.90
666;DHT22;315;48.738;9.126;2023-09-08T03:57:39;16.00;99.90
666;DHT22;315;48.738;9.126;2023-09-08T04:00:05;16.00;99.90
666;DHT22;315;48.738;9.126;2023-09-08T04:02:32;15.90;99.90
666;DHT22;315;48.738;9.126;2023-09-08T04:04:58;15.90;99.90
666;DHT22;315;48.738;9.126;2023-09-08T04:07:24;15.90;99.90
666;DHT22;315;48.738;9.126;2023-09-08T04:09:49;15.90;99.90
666;DHT22;315;48.738;9.126;2023-09-08T04:12:15;15.90;99.90
666;DHT22;315;48.738;9.126;2023-09-08T04:14:41;15.90;99.90
666;DHT22;315;48.738;9.126;2023-09-08T04:17:06;15.80;99.90
666;DHT22;315;48.738;9.126;2023-09-08T04:19:32;15.80;99.90
666;DHT22;315;48.738;9.126;2023-09-08T04:21:57;15.80;99.90
666;DHT22;315;48.738;9.126;2023-09-08T04:24:22;15.80;99.90
666;DHT22;315;48.738;9.126;2023-09-08T04:26:48;15.80;99.90
666;DHT22;315;48.738;9.126;2023-09-08T04:29:13;15.80;99.90
666;DHT22;315;48.738;9.126;2023-09-08T04:31:39;15.70;99.90
666;DHT22;315;48.738;9.126;2023-09-08T04:34:04;15.80;99.90
666;DHT22;315;48.738;9.126;2023-09-08T04:36:30;15.70;99.90
666;DHT22;315;48.738;9.126;2023-09-08T04:38:56;15.70;99.90
666;DHT22;315;48.738;9.126;2023-09-08T04:41:22;15.70;99.90
666;DHT22;315;48.738;9.126;2023-09-08T04:43:47;15.60;99.90
666;DHT22;315;48.738;9.126;2023-09-08T04:46:13;15.60;99.90
666;DHT22;315;48.738;9.126;2023-09-08T04:48:38;15.60;99.90
666;DHT22;315;48.738;9.126;2023-09-08T04:51:04;15.70;99.90
666;DHT22;315;48.738;9.126;2023-09-08T04:53:29;15.70;99.90
666;DHT22;315;48.738;9.126;2023-09-08T04:55:55;15.70;99.90
666;DHT22;315;48.738;9.126;2023-09-08T04:58:20;15.80;99.90
666;DHT22;315;48.738;9.126;2023-09-08T05:00:46;15.80;99.90
666;DHT22;315;48.738;9.126;2023-09-08T05:03:11;15.80;99.90
666;DHT22;315;48.738;9.126;2023-09-08T05:05:37;15.90;99.90
666;DHT22;315;48.738;9.126;2023-09-08T05:08:04;15.90;99.90
666;DHT22;315;48.738;9.126;2023-09-08T05:10:29;15.90;99.90
666;DHT22;315;48.738;9.126;2023-09-08T05:12:55;16.00;99.90
666;DHT22;315;48.738;9.126;2023-09-08T05:15:20;15.90;99.90
666;DHT22;315;48.738;9.126;2023-09-08T05:17:47;15.90;99.90
666;DHT22;315;48.738;9.126;2023-09-08T05:20:12;16.10;99.90
666;DHT22;315;48.738;9.126;2023-09-08T05:22:38;16.10;99.90
666;DHT22;315;48.738;9.126;2023-09-08T05:25:04;16.20;99.90
666;DHT22;315;48.738;9.126;2023-09-08T05:27:29;16.20;99.90
666;DHT22;315;48.738;9.126;2023-09-08T05:29:55;16.30;99.90
666;DHT22;315;48.738;9.126;2023-09-08T05:32:20;16.40;99.90
666;DHT22;315;48.738;9.126;2023-09-08T05:34:46;16.50;99.90
666;DHT22;315;48.738;9.126;2023-09-08T05:37:11;16.70;99.90
666;DHT22;315;48.738;9.126;2023-09-08T05:39:37;16.80;99.90
666;DHT22;315;48.738;9.126;2023-09-08T05:42:03;17.00;99.90
666;DHT22;315;48.738;9.126;2023-09-08T05:44:28;17.20;99.90
666;DHT22;315;48.738;9.126;2023-09-08T05:46:54;17.40;99.90
666;DHT22;315;48.738;9.126;2023-09-08T05:49:19;17.60;99.90
666;DHT22;315;48.738;9.126;2023-09-08T05:51:45;17.70;99.90
666;DHT22;315;48.738;9.126;2023-09-08T05:54:10;17.90;99.90
666;DHT22;315;48.738;9.126;2023-09-08T05:56:37;18.00;99.90
666;DHT22;315;48.738;9.126;2023-09-08T05:59:03;18.00;99.90
666;DHT22;315;48.738;9.126;2023-09-08T06:01:29;18.10;99.90
666;DHT22;315;48.738;9.126;2023-09-08T06:03:55;18.20;99.90
666;DHT22;315;48.738;9.126;2023-09-08T06:06:21;18.30;99.90
666;DHT22;315;48.738;9.126;2023-09-08T06:08:47;18.50;99.90
666;DHT22;315;48.738;9.126;2023-09-08T06:11:12;18.60;99.90
666;DHT22;315;48.738;9.126;2023-09-08T06:13:38;18.70;99.90
666;DHT22;315;48.738;9.126;2023-09-08T06:16:04;18.80;99.90
666;DHT22;315;48.738;9.126;2023-09-08T06:18:29;18.90;99.90
666;DHT22;315;48.738;9.126;2023-09-08T06:20:59;18.90;99.90
666;DHT22;315;48.738;9.126;2023-09-08T06:23:24;19.00;99.90
666;DHT22;315;48.738;9.126;2023-09-08T06:25:50;19.30;99.90
666;DHT22;315;48.738;9.126;2023-09-08T06:28:16;19.40;99.90
666;DHT22;315;48.738;9.126;2023-09-08T06:30:41;19.60;99.90
666;DHT22;315;48.738;9.126;2023-09-08T06:33:08;19.90;99.90
666;DHT22;315;48.738;9.126;2023-09-08T06:35:33;20.20;99.90
666;DHT22;315;48.738;9.126;2023-09-08T06:37:59;20.60;99.90
666;DHT22;315;48.738;9.126;2023-09-08T06:40:25;20.90;99.90
666;DHT22;315;48.738;9.126;2023-09-08T06:42:50;21.10;99.90
666;DHT22;315;48.738;9.126;2023-09-08T06:45:16;21.40;99.90
666;DHT22;315;48.738;9.126;2023-09-08T06:47:43;21.60;99.90
666;DHT22;315;48.738;9.126;2023-09-08T06:50:09;21.90;99.90
666;DHT22;315;48.738;9.126;2023-09-08T06:52:35;22.10;99.90
666;DHT22;315;48.738;9.126;2023-09-08T06:55:01;22.30;99.90
666;DHT22;315;48.738;9.126;2023-09-08T06:57:26;22.60;99.90
666;DHT22;315;48.738;9.126;2023-09-08T06:59:52;22.70;99.90
666;DHT22;315;48.738;9.126;2023-09-08T07:02:17;22.90;99.90
666;DHT22;315;48.738;9.126;2023-09-08T07:04:43;23.20;99.90
666;DHT22;315;48.738;9.126;2023-09-08T07:07:08;23.40;99.90
666;DHT22;315;48.738;9.126;2023-09-08T07:09:36;23.50;99.90
666;DHT22;315;48.738;9.126;2023-09-08T07:12:05;23.50;99.90
666;DHT22;315;48.738;9.126;2023-09-08T07:14:31;23.70;99.90
666;DHT22;315;48.738;9.126;2023-09-08T07:16:57;23.90;99.90
666;DHT22;315;48.738;9.126;2023-09-08T07:19:23;24.00;99.90
666;DHT22;315;48.738;9.126;2023-09-08T07:21:48;24.30;99.90
666;DHT22;315;48.738;9.126;2023-09-08T07:24:14;24.40;99.90
666;DHT22;315;48.738;9.126;2023-09-08T07:26:39;24.70;99.90
666;DHT22;315;48.738;9.126;2023-09-08T07:29:05;25.00;99.90
666;DHT22;315;48.738;9.126;2023-09-08T07:31:30;25.10;99.90
666;DHT22;315;48.738;9.126;2023-09-08T07:33:56;25.10;99.90
666;DHT22;315;48.738;9.126;2023-09-08T07:36:21;25.20;99.90
666;DHT22;315;48.738;9.126;2023-09-08T07:38:47;25.30;99.90
666;DHT22;315;48.738;9.126;2023-09-08T07:41:12;25.30;99.90
666;DHT22;315;48.738;9.126;2023-09-08T07:43:38;25.50;99.90
666;DHT22;315;48.738;9.126;2023-09-08T07:46:06;26.00;99.90
666;DHT22;315;48.738;9.126;2023-09-08T07:48:32;26.30;99.90
666;DHT22;315;48.738;9.126;2023-09-08T07:50:58;26.40;99.90
666;DHT22;315;48.738;9.126;2023-09-08T07:53:26;26.10;99.90
666;DHT22;315;48.738;9.126;2023-09-08T07:55:51;26.10;99.90
666;DHT22;315;48.738;9.126;2023-09-08T07:58:17;26.30;99.90
666;DHT22;315;48.738;9.126;2023-09-08T08:00:42;26.40;99.90
666;DHT22;315;48.738;9.126;2023-09-08T08:03:08;26.20;99.90
666;DHT22;315;48.738;9.126;2023-09-08T08:05:33;26.50;99.90
666;DHT22;315;48.738;9.126;2023-09-08T08:07:59;26.80;99.90
666;DHT22;315;48.738;9.126;2023-09-08T08:10:25;27.20;99.90
666;DHT22;315;48.738;9.126;2023-09-08T08:12:50;27.80;99.90
666;DHT22;315;48.738;9.126;2023-09-08T08:15:18;28.00;99.90
666;DHT22;315;48.738;9.126;2023-09-08T08:17:44;28.20;99.90
666;DHT22;315;48.738;9.126;2023-09-08T08:20:10;28.10;99.90
666;DHT22;315;48.738;9.126;2023-09-08T08:22:42;28.10;99.90
666;DHT22;315;48.738;9.126;2023-09-08T08:25:08;28.20;99.90
666;DHT22;315;48.738;9.126;2023-09-08T08:27:33;28.50;99.90
666;DHT22;315;48.738;9.126;2023-09-08T08:29:59;28.70;99.90
666;DHT22;315;48.738;9.126;2023-09-08T08:32:26;28.60;99.90
666;DHT22;315;48.738;9.126;2023-09-08T08:34:52;28.90;99.90
666;DHT22;315;48.738;9.126;2023-09-08T08:37:18;29.00;99.90
666;DHT22;315;48.738;9.126;2023-09-08T08:39:43;28.90;99.90
666;DHT22;315;48.738;9.126;2023-09-08T08:42:10;29.20;99.90
666;DHT22;315;48.738;9.126;2023-09-08T08:44:37;29.40;99.90
666;DHT22;315;48.738;9.126;2023-09-08T08:47:03;29.40;99.90
666;DHT22;315;48.738;9.126;2023-09-08T08:49:31;29.90;99.90
666;DHT22;315;48.738;9.126;2023-09-08T08:51:58;30.50;99.30
666;DHT22;315;48.738;9.126;2023-09-08T08:54:24;30.50;98.20
666;DHT22;315;48.738;9.126;2023-09-08T08:56:50;30.90;98.20
666;DHT22;315;48.738;9.126;2023-09-08T08:59:16;31.40;96.80
666;DHT22;315;48.738;9.126;2023-09-08T09:01:42;31.10;95.80
666;DHT22;315;48.738;9.126;2023-09-08T09:04:08;31.50;95.40
666;DHT22;315;48.738;9.126;2023-09-08T09:06:35;31.80;94.60
666;DHT22;315;48.738;9.126;2023-09-08T09:09:02;32.10;93.60
666;DHT22;315;48.738;9.126;2023-09-08T09:11:29;32.60;92.60
666;DHT22;315;48.738;9.126;2023-09-08T09:13:57;33.00;91.40
666;DHT22;315;48.738;9.126;2023-09-08T09:16:22;33.30;90.60
666;DHT22;315;48.738;9.126;2023-09-08T09:18:58;33.90;89.30
666;DHT22;315;48.738;9.126;2023-09-08T09:24:38;35.00;82.20
666;DHT22;315;48.738;9.126;2023-09-08T09:27:07;35.30;79.20
666;DHT22;315;48.738;9.126;2023-09-08T09:29:33;35.70;76.10
666;DHT22;315;48.738;9.126;2023-09-08T09:34:28;36.40;73.20
666;DHT22;315;48.738;9.126;2023-09-08T09:36:53;37.20;69.30
666;DHT22;315;48.738;9.126;2023-09-08T09:39:20;37.70;67.70
666;DHT22;315;48.738;9.126;2023-09-08T09:41:47;38.00;65.00
666;DHT22;315;48.738;9.126;2023-09-08T09:44:14;38.10;63.70
666;DHT22;315;48.738;9.126;2023-09-08T09:46:46;38.10;62.80
666;DHT22;315;48.738;9.126;2023-09-08T09:49:13;38.50;61.00
666;DHT22;315;48.738;9.126;2023-09-08T09:51:49;39.10;59.10
666;DHT22;315;48.738;9.126;2023-09-08T09:54:16;39.00;58.40
666;DHT22;315;48.738;9.126;2023-09-08T09:56:43;39.30;57.00
666;DHT22;315;48.738;9.126;2023-09-08T09:59:10;39.00;57.00
666;DHT22;315;48.738;9.126;2023-09-08T10:01:37;38.40;57.10
666;DHT22;315;48.738;9.126;2023-09-08T10:04:04;38.90;56.50
666;DHT22;315;48.738;9.126;2023-09-08T10:06:34;39.30;55.70
666;DHT22;315;48.738;9.126;2023-09-08T10:09:02;39.50;55.20
666;DHT22;315;48.738;9.126;2023-09-08T10:11:35;39.90;54.50
666;DHT22;315;48.738;9.126;2023-09-08T10:14:04;40.20;53.40
666;DHT22;315;48.738;9.126;2023-09-08T10:16:35;41.20;51.90
666;DHT22;315;48.738;9.126;2023-09-08T10:19:08;41.20;50.50
666;DHT22;315;48.738;9.126;2023-09-08T10:21:39;42.20;50.00
666;DHT22;315;48.738;9.126;2023-09-08T10:24:14;42.80;49.10
666;DHT22;315;48.738;9.126;2023-09-08T10:26:43;42.30;48.50
666;DHT22;315;48.738;9.126;2023-09-08T10:29:10;40.90;49.50
666;DHT22;315;48.738;9.126;2023-09-08T10:31:36;41.50;48.80
666;DHT22;315;48.738;9.126;2023-09-08T10:34:03;41.90;48.00
666;DHT22;315;48.738;9.126;2023-09-08T10:36:29;42.60;47.10
666;DHT22;315;48.738;9.126;2023-09-08T10:39:34;43.40;45.80
666;DHT22;315;48.738;9.126;2023-09-08T10:47:13;43.60;44.70
666;DHT22;315;48.738;9.126;2023-09-08T10:49:39;43.40;44.50
666;DHT22;315;48.738;9.126;2023-09-08T10:52:11;43.40;44.00
666;DHT22;315;48.738;9.126;2023-09-08T10:54:43;43.70;43.60
666;DHT22;315;48.738;9.126;2023-09-08T10:57:17;44.40;43.10
666;DHT22;315;48.738;9.126;2023-09-08T10:59:57;44.90;42.10
666;DHT22;315;48.738;9.126;2023-09-08T11:02:42;44.50;42.10
666;DHT22;315;48.738;9.126;2023-09-08T11:05:14;44.20;41.80
666;DHT22;315;48.738;9.126;2023-09-08T11:07:42;44.10;41.40
666;DHT22;315;48.738;9.126;2023-09-08T11:10:08;43.70;42.10
666;DHT22;315;48.738;9.126;2023-09-08T11:12:34;44.70;41.30
666;DHT22;315;48.738;9.126;2023-09-08T11:15:01;45.80;40.40
666;DHT22;315;48.738;9.126;2023-09-08T11:17:31;45.60;39.70
666;DHT22;315;48.738;9.126;2023-09-08T11:19:57;45.80;39.70
666;DHT22;315;48.738;9.126;2023-09-08T11:22:25;46.20;38.80
666;DHT22;315;48.738;9.126;2023-09-08T11:24:56;45.40;38.70
666;DHT22;315;48.738;9.126;2023-09-08T11:27:27;44.90;39.30
666;DHT22;315;48.738;9.126;2023-09-08T11:29:53;45.40;38.70
666;DHT22;315;48.738;9.126;2023-09-08T11:32:18;45.60;38.20
666;DHT22;315;48.738;9.126;2023-09-08T11:34:44;45.20;38.40
666;DHT22;315;48.738;9.126;2023-09-08T11:39:39;46.60;37.70
666;DHT22;315;48.738;9.126;2023-09-08T11:42:06;46.60;36.90
666;DHT22;315;48.738;9.126;2023-09-08T11:44:34;46.20;37.40
666;DHT22;315;48.738;9.126;2023-09-08T11:47:01;46.60;36.90
666;DHT22;315;48.738;9.126;2023-09-08T11:49:34;47.20;36.30
666;DHT22;315;48.738;9.126;2023-09-08T11:51:59;47.40;35.50
666;DHT22;315;48.738;9.126;2023-09-08T11:54:25;47.30;35.40
666;DHT22;315;48.738;9.126;2023-09-08T11:56:51;46.60;35.50
666;DHT22;315;48.738;9.126;2023-09-08T11:59:17;46.60;35.40
666;DHT22;315;48.738;9.126;2023-09-08T12:01:43;46.20;35.80
666;DHT22;315;48.738;9.126;2023-09-08T12:04:19;46.70;35.50
666;DHT22;315;48.738;9.126;2023-09-08T12:06:48;47.30;35.30
666;DHT22;315;48.738;9.126;2023-09-08T12:09:15;47.90;34.80
666;DHT22;315;48.738;9.126;2023-09-08T12:11:42;48.00;34.50
666;DHT22;315;48.738;9.126;2023-09-08T12:14:10;48.40;34.10
666;DHT22;315;48.738;9.126;2023-09-08T12:16:36;47.60;34.20
666;DHT22;315;48.738;9.126;2023-09-08T12:19:02;47.90;34.00
666;DHT22;315;48.738;9.126;2023-09-08T12:21:27;48.60;33.50
666;DHT22;315;48.738;9.126;2023-09-08T12:23:53;48.60;32.80
666;DHT22;315;48.738;9.126;2023-09-08T12:26:20;48.40;32.60
666;DHT22;315;48.738;9.126;2023-09-08T12:28:46;48.20;32.80
666;DHT22;315;48.738;9.126;2023-09-08T12:31:15;48.60;32.80
666;DHT22;315;48.738;9.126;2023-09-08T12:33:43;48.50;32.10
666;DHT22;315;48.738;9.126;2023-09-08T12:36:17;48.60;32.30
666;DHT22;315;48.738;9.126;2023-09-08T12:38:52;48.80;31.50
666;DHT22;315;48.738;9.126;2023-09-08T12:41:18;48.00;31.70
666;DHT22;315;48.738;9.126;2023-09-08T12:43:45;48.70;31.50
666;DHT22;315;48.738;9.126;2023-09-08T12:46:11;48.60;31.20
666;DHT22;315;48.738;9.126;2023-09-08T12:48:37;48.70;31.30
666;DHT22;315;48.738;9.126;2023-09-08T12:51:02;49.20;31.00
666;DHT22;315;48.738;9.126;2023-09-08T12:53:32;48.70;30.80
666;DHT22;315;48.738;9.126;2023-09-08T12:55:58;48.70;30.50
666;DHT22;315;48.738;9.126;2023-09-08T12:58:24;48.60;30.40
666;DHT22;315;48.738;9.126;2023-09-08T13:00:49;49.10;30.20
666;DHT22;315;48.738;9.126;2023-09-08T13:03:15;49.10;30.00
666;DHT22;315;48.738;9.126;2023-09-08T13:05:40;48.60;30.00
666;DHT22;315;48.738;9.126;2023-09-08T13:08:06;47.80;30.00
666;DHT22;315;48.738;9.126;2023-09-08T13:10:32;48.60;30.20
666;DHT22;315;48.738;9.126;2023-09-08T13:12:57;49.10;30.20
666;DHT22;315;48.738;9.126;2023-09-08T13:15:23;48.80;29.60
666;DHT22;315;48.738;9.126;2023-09-08T13:17:49;48.70;29.90
666;DHT22;315;48.738;9.126;2023-09-08T13:20:14;48.60;29.80
666;DHT22;315;48.738;9.126;2023-09-08T13:22:40;48.00;30.00
666;DHT22;315;48.738;9.126;2023-09-08T13:25:06;47.80;30.10
666;DHT22;315;48.738;9.126;2023-09-08T13:27:31;47.60;29.90
666;DHT22;315;48.738;9.126;2023-09-08T13:30:14;47.70;30.00
666;DHT22;315;48.738;9.126;2023-09-08T13:32:40;48.30;29.80
666;DHT22;315;48.738;9.126;2023-09-08T13:35:06;48.30;29.70
666;DHT22;315;48.738;9.126;2023-09-08T13:37:32;48.00;29.70
666;DHT22;315;48.738;9.126;2023-09-08T13:40:00;46.60;29.90
666;DHT22;315;48.738;9.126;2023-09-08T13:42:26;44.70;31.20
666;DHT22;315;48.738;9.126;2023-09-08T13:44:51;42.90;32.70
666;DHT22;315;48.738;9.126;2023-09-08T13:47:17;41.50;34.10
666;DHT22;315;48.738;9.126;2023-09-08T13:49:42;40.30;35.10
666;DHT22;315;48.738;9.126;2023-09-08T13:52:08;39.30;36.60
666;DHT22;315;48.738;9.126;2023-09-08T13:54:33;38.20;37.50
666;DHT22;315;48.738;9.126;2023-09-08T13:57:03;37.00;38.50
666;DHT22;315;48.738;9.126;2023-09-08T13:59:29;36.40;39.30
666;DHT22;315;48.738;9.126;2023-09-08T14:01:56;35.60;39.90
666;DHT22;315;48.738;9.126;2023-09-08T14:04:23;34.90;40.90
666;DHT22;315;48.738;9.126;2023-09-08T14:06:48;34.20;41.70
666;DHT22;315;48.738;9.126;2023-09-08T14:09:14;33.70;42.20
666;DHT22;315;48.738;9.126;2023-09-08T14:11:40;33.60;43.00
666;DHT22;315;48.738;9.126;2023-09-08T14:14:06;33.40;42.60
666;DHT22;315;48.738;9.126;2023-09-08T14:16:32;33.40;43.10
666;DHT22;315;48.738;9.126;2023-09-08T14:18:57;32.80;43.60
666;DHT22;315;48.738;9.126;2023-09-08T14:21:23;32.50;44.00
666;DHT22;315;48.738;9.126;2023-09-08T14:23:48;32.30;43.90
666;DHT22;315;48.738;9.126;2023-09-08T14:26:15;32.00;44.80
666;DHT22;315;48.738;9.126;2023-09-08T14:28:40;31.70;45.00
666;DHT22;315;48.738;9.126;2023-09-08T14:31:06;31.40;45.60
666;DHT22;315;48.738;9.126;2023-09-08T14:33:31;31.20;46.70
666;DHT22;315;48.738;9.126;2023-09-08T14:35:57;31.00;46.10
666;DHT22;315;48.738;9.126;2023-09-08T14:38:23;31.00;46.70
666;DHT22;315;48.738;9.126;2023-09-08T14:41:00;30.90;46.90
666;DHT22;315;48.738;9.126;2023-09-08T14:43:26;30.90;47.00
666;DHT22;315;48.738;9.126;2023-09-08T14:45:53;30.90;47.20
666;DHT22;315;48.738;9.126;2023-09-08T14:48:19;30.70;46.90
666;DHT22;315;48.738;9.126;2023-09-08T14:50:45;30.50;47.40
666;DHT22;315;48.738;9.126;2023-09-08T14:53:11;30.40;47.40
666;DHT22;315;48.738;9.126;2023-09-08T14:55:37;30.30;47.90
666;DHT22;315;48.738;9.126;2023-09-08T14:58:02;30.20;48.30
666;DHT22;315;48.738;9.126;2023-09-08T15:00:28;30.20;48.40
666;DHT22;315;48.738;9.126;2023-09-08T15:02:54;30.10;48.40
666;DHT22;315;48.738;9.126;2023-09-08T15:05:19;30.00;48.30
666;DHT22;315;48.738;9.126;2023-09-08T15:07:45;30.00;48.80
666;DHT22;315;48.738;9.126;2023-09-08T15:10:11;29.90;48.70
666;DHT22;315;48.738;9.126;2023-09-08T15:12:36;29.80;48.80
666;DHT22;315;48.738;9.126;2023-09-08T15:15:02;29.70;48.70
666;DHT22;315;48.738;9.126;2023-09-08T15:17:28;29.70;49.40
666;DHT22;315;48.738;9.126;2023-09-08T15:19:54;29.70;49.70
666;DHT22;315;48.738;9.126;2023-09-08T15:22:19;29.60;49.80
666;DHT22;315;48.738;9.126;2023-09-08T15:24:45;29.50;50.10
666;DHT22;315;48.738;9.126;2023-09-08T15:27:10;29.40;50.80
666;DHT22;315;48.738;9.126;2023-09-08T15:29:36;29.40;51.40
666;DHT22;315;48.738;9.126;2023-09-08T15:32:01;29.40;51.10
666;DHT22;315;48.738;9.126;2023-09-08T15:34:28;29.40;51.20
666;DHT22;315;48.738;9.126;2023-09-08T15:36:54;29.30;52.20
666;DHT22;315;48.738;9.126;2023-09-08T15:39:20;29.20;51.30
666;DHT22;315;48.738;9.126;2023-09-08T15:41:46;29.20;51.60
666;DHT22;315;48.738;9.126;2023-09-08T15:44:12;29.10;52.00
666;DHT22;315;48.738;9.126;2023-09-08T15:46:39;29.00;52.70
666;DHT22;315;48.738;9.126;2023-09-08T15:49:05;28.90;52.10
666;DHT22;315;48.738;9.126;2023-09-08T15:51:30;28.80;52.10
666;DHT22;315;48.738;9.126;2023-09-08T15:53:56;28.70;52.60
666;DHT22;315;48.738;9.126;2023-09-08T15:56:21;28.60;52.90
666;DHT22;315;48.738;9.126;2023-09-08T15:58:47;28.60;53.50
666;DHT22;315;48.738;9.126;2023-09-08T16:01:12;28.50;53.20
666;DHT22;315;48.738;9.126;2023-09-08T16:03:38;28.40;53.10
666;DHT22;315;48.738;9.126;2023-09-08T16:06:03;28.40;54.70
666;DHT22;315;48.738;9.126;2023-09-08T16:08:29;28.40;54.80
666;DHT22;315;48.738;9.126;2023-09-08T16:10:54;28.40;54.70
666;DHT22;315;48.738;9.126;2023-09-08T16:13:20;28.30;55.30
666;DHT22;315;48.738;9.126;2023-09-08T16:15:45;28.20;56.00
666;DHT22;315;48.738;9.126;2023-09-08T16:18:12;28.10;56.90
666;DHT22;315;48.738;9.126;2023-09-08T16:20:38;28.10;58.10
666;DHT22;315;48.738;9.126;2023-09-08T16:23:04;28.10;58.30
666;DHT22;315;48.738;9.126;2023-09-08T16:25:30;28.00;59.20
666;DHT22;315;48.738;9.126;2023-09-08T16:27:56;27.90;59.80
666;DHT22;315;48.738;9.126;2023-09-08T16:30:21;27.80;60.20
666;DHT22;315;48.738;9.126;2023-09-08T16:32:47;27.80;61.60
666;DHT22;315;48.738;9.126;2023-09-08T16:35:12;27.80;62.00
666;DHT22;315;48.738;9.126;2023-09-08T16:37:38;27.80;63.30
666;DHT22;315;48.738;9.126;2023-09-08T16:40:04;27.60;64.60
666;DHT22;315;48.738;9.126;2023-09-08T16:42:30;27.60;66.30
666;DHT22;315;48.738;9.126;2023-09-08T16:44:56;27.60;66.90
666;DHT22;315;48.738;9.126;2023-09-08T16:47:21;27.50;66.90